createdAt,value
2022-11-04T00:03:54.461Z,94.15
2022-11-04T00:08:57.838Z,93.09
2022-11-04T00:13:59.428Z,94.56
2022-11-04T00:19:01.672Z,95.81
2022-11-04T00:24:22.174Z,95.97
2022-11-04T00:29:23.754Z,95.72
2022-11-04T00:34:25.254Z,96.90
2022-11-04T00:39:26.738Z,97.10
2022-11-04T00:44:28.304Z,97.46
2022-11-04T00:49:29.831Z,98.89
2022-11-04T00:54:31.342Z,99.07
2022-11-04T00:59:32.859Z,98.63
2022-11-04T01:04:34.488Z,99.03
2022-11-04T01:09:35.991Z,100.00
2022-11-04T01:14:37.588Z,100.00
2022-11-04T01:19:39.107Z,100.00
2022-11-04T01:24:40.610Z,100.00
2022-11-04T01:29:42.135Z,100.00
2022-11-04T01:34:43.829Z,100.00
2022-11-04T01:39:45.450Z,100.00
2022-11-04T01:44:56.378Z,100.00
2022-11-04T01:50:04.766Z,100.00
2022-11-04T01:55:13.179Z,100.00
2022-11-04T02:00:15.851Z,99.90
2022-11-04T02:05:18.588Z,99.17
2022-11-04T02:10:23.051Z,98.90
2022-11-04T02:15:37.437Z,97.88
2022-11-04T02:20:47.954Z,98.55
2022-11-04T02:25:58.330Z,99.37
2022-11-04T02:31:08.993Z,100.00
2022-11-04T02:36:31.604Z,100.00
2022-11-04T02:41:42.004Z,100.00
2022-11-04T02:46:49.649Z,98.52
2022-11-04T02:52:40.518Z,98.89
2022-11-04T02:57:44.733Z,99.36
2022-11-04T03:02:53.333Z,99.50
2022-11-04T03:07:58.239Z,98.29
2022-11-04T03:13:06.156Z,99.83
2022-11-04T03:18:21.151Z,100.00
2022-11-04T03:23:22.754Z,100.00
2022-11-04T03:28:51.528Z,100.00
2022-11-04T03:33:55.341Z,100.00
2022-11-04T03:38:56.856Z,100.00
2022-11-04T03:43:58.379Z,100.00
2022-11-04T03:49:02.063Z,100.00
2022-11-04T03:54:04.593Z,100.00
2022-11-04T03:59:43.559Z,100.00
2022-11-04T04:04:57.369Z,100.00
2022-11-04T04:10:37.240Z,100.00
2022-11-04T04:15:52.908Z,100.00
2022-11-04T04:20:59.224Z,100.00
2022-11-04T04:26:23.592Z,100.00
2022-11-04T04:31:45.441Z,100.00
2022-11-04T04:37:20.975Z,100.00
2022-11-04T04:42:41.421Z,100.00
2022-11-04T04:47:45.496Z,100.00
2022-11-04T04:52:50.718Z,100.00
2022-11-04T04:57:52.213Z,100.00
2022-11-04T05:02:53.781Z,100.00
2022-11-04T05:07:55.311Z,100.00
2022-11-04T05:13:15.195Z,100.00
2022-11-04T05:18:16.818Z,100.00
2022-11-04T05:23:18.387Z,100.00
2022-11-04T05:28:19.913Z,100.00
2022-11-04T05:33:21.485Z,100.00
2022-11-04T05:38:23.030Z,100.00
2022-11-04T05:43:24.658Z,100.00
2022-11-04T05:48:26.687Z,100.00
2022-11-04T05:58:34.880Z,100.00
2022-11-04T06:03:36.577Z,100.00
2022-11-04T06:08:44.003Z,100.00
2022-11-04T06:13:46.716Z,100.00
2022-11-04T06:18:48.347Z,100.00
2022-11-04T06:23:50.006Z,100.00
2022-11-04T06:28:51.839Z,100.00
2022-11-04T06:33:53.410Z,100.00
2022-11-04T06:38:59.915Z,100.00
2022-11-04T06:44:04.738Z,100.00
2022-11-04T06:49:07.891Z,100.00
2022-11-04T06:54:09.748Z,100.00
2022-11-04T06:59:19.341Z,100.00
2022-11-04T07:04:20.972Z,100.00
2022-11-04T07:09:22.663Z,100.00
2022-11-04T07:14:24.387Z,100.00
2022-11-04T07:19:25.892Z,100.00
2022-11-04T07:24:27.494Z,100.00
2022-11-04T07:29:29.105Z,100.00
2022-11-04T07:34:30.645Z,100.00
2022-11-04T07:39:32.188Z,100.00
2022-11-04T07:44:33.745Z,100.00
2022-11-04T07:49:35.363Z,100.00
2022-11-04T07:54:37.211Z,100.00
2022-11-04T07:59:38.793Z,100.00
2022-11-04T08:04:40.344Z,100.00
2022-11-04T08:09:41.869Z,100.00
2022-11-04T08:14:43.480Z,100.00
2022-11-04T08:19:45.097Z,100.00
2022-11-04T08:24:47.355Z,100.00
2022-11-04T08:29:49.065Z,100.00
2022-11-04T08:34:50.653Z,100.00
2022-11-04T08:39:52.238Z,100.00
2022-11-04T08:44:53.889Z,100.00
2022-11-04T08:49:55.471Z,100.00
2022-11-04T08:54:57.594Z,100.00
2022-11-04T08:59:59.283Z,100.00
2022-11-04T09:05:01.878Z,100.00
2022-11-04T09:10:05.943Z,100.00
2022-11-04T09:15:08.081Z,100.00
2022-11-04T09:20:10.382Z,100.00
2022-11-04T09:25:11.936Z,100.00
2022-11-04T09:30:13.900Z,100.00
2022-11-04T09:35:17.702Z,100.00
2022-11-04T09:40:22.514Z,100.00
2022-11-04T09:45:28.176Z,100.00
2022-11-04T09:50:38.225Z,100.00
2022-11-04T09:55:50.456Z,100.00
2022-11-04T10:01:12.879Z,100.00
2022-11-04T10:06:39.369Z,100.00
2022-11-04T10:12:23.740Z,100.00
2022-11-04T10:17:37.545Z,100.00
2022-11-04T10:22:45.435Z,100.00
2022-11-04T10:27:49.094Z,100.00
2022-11-04T10:32:59.746Z,100.00
2022-11-04T10:38:24.082Z,100.00
2022-11-04T10:43:35.829Z,100.00
2022-11-04T10:48:50.420Z,100.00
2022-11-04T10:53:57.784Z,100.00
2022-11-04T10:59:20.050Z,100.00
2022-11-04T11:04:36.602Z,100.00
2022-11-04T11:09:52.582Z,100.00
2022-11-04T11:14:56.289Z,100.00
2022-11-04T11:20:02.810Z,100.00
2022-11-04T11:25:22.449Z,100.00
2022-11-04T11:30:33.904Z,100.00
2022-11-04T11:35:42.259Z,100.00
2022-11-04T11:41:10.448Z,100.00
2022-11-04T11:46:05.930Z,100.00
2022-11-04T11:51:07.742Z,100.00
2022-11-04T11:56:24.852Z,100.00
2022-11-04T12:01:37.797Z,100.00
2022-11-04T12:12:33.432Z,100.00
2022-11-04T12:17:46.618Z,100.00
2022-11-04T12:22:50.792Z,100.00
2022-11-04T12:28:27.529Z,100.00
2022-11-04T12:33:35.008Z,100.00
2022-11-04T12:38:59.488Z,100.00
2022-11-04T12:44:19.739Z,100.00
2022-11-04T12:49:24.357Z,100.00
2022-11-04T12:54:25.814Z,100.00
2022-11-04T13:00:06.431Z,100.00
2022-11-04T13:05:44.946Z,100.00
2022-11-04T13:10:55.826Z,100.00
2022-11-04T13:16:02.228Z,100.00
2022-11-04T13:21:10.126Z,100.00
2022-11-04T13:26:15.542Z,100.00
2022-11-04T13:31:27.069Z,100.00
2022-11-04T13:36:35.002Z,100.00
2022-11-04T13:41:58.122Z,100.00
2022-11-04T13:47:03.650Z,100.00
2022-11-04T13:52:11.862Z,100.00
2022-11-04T13:57:20.547Z,100.00
2022-11-04T14:02:22.103Z,100.00
2022-11-04T14:07:58.472Z,100.00
2022-11-04T14:13:35.140Z,100.00
2022-11-04T14:18:41.143Z,100.00
2022-11-04T14:23:45.889Z,100.00
2022-11-04T14:28:50.697Z,100.00
2022-11-04T14:33:56.363Z,100.00
2022-11-04T14:39:09.943Z,100.00
2022-11-04T14:44:23.498Z,100.00
2022-11-04T14:49:39.365Z,100.00
2022-11-04T14:54:41.549Z,100.00
2022-11-04T14:59:43.949Z,100.00
2022-11-04T15:04:53.329Z,100.00
2022-11-04T15:09:54.954Z,100.00
2022-11-04T15:14:57.885Z,100.00
2022-11-04T15:20:02.558Z,100.00
2022-11-04T15:25:06.150Z,100.00
2022-11-04T15:30:18.417Z,100.00
2022-11-04T15:35:20.663Z,100.00
2022-11-04T15:40:22.885Z,100.00
2022-11-04T15:45:37.455Z,100.00
2022-11-04T15:50:39.315Z,100.00
2022-11-04T15:55:41.081Z,100.00
2022-11-04T16:00:51.918Z,100.00
2022-11-04T16:06:03.848Z,100.00
2022-11-04T16:11:13.223Z,100.00
2022-11-04T16:16:25.041Z,100.00
2022-11-04T16:21:28.225Z,100.00
2022-11-04T16:26:38.689Z,100.00
2022-11-04T16:31:40.218Z,100.00
2022-11-04T16:36:41.805Z,100.00
2022-11-04T16:41:43.852Z,100.00
2022-11-04T16:46:45.665Z,100.00
2022-11-04T16:51:51.276Z,100.00
2022-11-04T16:56:54.728Z,100.00
2022-11-04T17:01:56.642Z,100.00
2022-11-04T17:06:58.301Z,100.00
2022-11-04T17:11:59.841Z,100.00
2022-11-04T17:17:01.982Z,100.00
2022-11-04T17:22:07.547Z,100.00
2022-11-04T17:27:09.092Z,100.00
2022-11-04T17:32:10.710Z,100.00
2022-11-04T17:37:13.538Z,100.00
2022-11-04T17:42:33.792Z,100.00
2022-11-04T17:47:36.167Z,100.00
2022-11-04T17:52:38.403Z,100.00
2022-11-04T17:57:39.979Z,100.00
2022-11-04T18:02:42.784Z,100.00
2022-11-04T18:07:44.510Z,100.00
2022-11-04T18:12:46.136Z,100.00
2022-11-04T18:17:49.999Z,100.00
2022-11-04T18:22:51.583Z,100.00
2022-11-04T18:27:53.179Z,100.00
2022-11-04T18:32:54.767Z,100.00
2022-11-04T18:37:56.363Z,100.00
2022-11-04T18:42:58.001Z,100.00
2022-11-04T18:47:59.557Z,100.00
2022-11-04T18:53:01.382Z,100.00
2022-11-04T18:58:03.555Z,100.00
2022-11-04T19:03:05.275Z,100.00
2022-11-04T19:08:07.610Z,100.00
2022-11-04T19:13:18.329Z,100.00
2022-11-04T19:18:20.441Z,100.00
2022-11-04T19:23:22.145Z,100.00
2022-11-04T19:28:47.527Z,100.00
2022-11-04T19:33:46.532Z,100.00
2022-11-04T19:38:51.475Z,100.00
2022-11-04T19:43:53.197Z,100.00
2022-11-04T19:48:58.487Z,100.00
2022-11-04T19:54:00.140Z,100.00
2022-11-04T19:59:06.016Z,100.00
2022-11-04T20:04:08.119Z,100.00
2022-11-04T20:09:12.910Z,100.00
2022-11-04T20:14:17.755Z,100.00
2022-11-04T20:19:22.963Z,100.00
2022-11-04T20:24:25.309Z,100.00
2022-11-04T20:29:27.277Z,100.00
2022-11-04T20:34:32.915Z,100.00
2022-11-04T20:39:34.637Z,100.00
2022-11-04T20:44:36.274Z,100.00
2022-11-04T20:49:38.467Z,100.00
2022-11-04T20:54:40.073Z,100.00
2022-11-04T20:59:41.715Z,100.00
2022-11-04T21:04:43.288Z,100.00
2022-11-04T21:09:44.985Z,100.00
2022-11-04T21:14:46.855Z,100.00
2022-11-04T21:19:48.620Z,100.00
2022-11-04T21:24:50.196Z,100.00
2022-11-04T21:29:52.528Z,100.00
2022-11-04T21:34:54.857Z,100.00
2022-11-04T21:39:56.543Z,100.00
2022-11-04T21:44:58.179Z,100.00
2022-11-04T21:50:00.568Z,100.00
2022-11-04T21:55:02.341Z,100.00
2022-11-04T22:00:06.361Z,100.00
2022-11-04T22:05:12.201Z,100.00
2022-11-04T22:10:13.981Z,100.00
2022-11-04T22:15:36.158Z,100.00
2022-11-04T22:20:37.885Z,100.00
2022-11-04T22:25:39.658Z,100.00
2022-11-04T22:30:41.713Z,100.00
2022-11-04T22:35:46.973Z,100.00
2022-11-04T22:40:57.279Z,100.00
2022-11-04T22:46:04.981Z,100.00
2022-11-04T22:51:09.101Z,100.00
2022-11-04T22:56:12.756Z,100.00
2022-11-04T23:01:15.768Z,100.00
2022-11-04T23:06:17.480Z,100.00
2022-11-04T23:11:41.577Z,100.00
2022-11-04T23:17:04.861Z,100.00
2022-11-04T23:22:26.154Z,100.00
2022-11-04T23:27:46.199Z,100.00
2022-11-04T23:32:53.706Z,100.00
2022-11-04T23:37:59.774Z,100.00
2022-11-04T23:43:01.418Z,100.00
2022-11-04T23:48:21.820Z,100.00
2022-11-04T23:53:41.973Z,100.00
2022-11-04T23:59:02.393Z,100.00
